createdAt,value
2018-09-20T00:00:57.405Z,98652.08
2018-09-20T00:03:29.195Z,98655.58
2018-09-20T00:06:00.862Z,98659.27
2018-09-20T00:08:34.345Z,98657.10
2018-09-20T00:11:06.065Z,98662.45
2018-09-20T00:13:37.928Z,98663.46
2018-09-20T00:16:09.543Z,98669.85
2018-09-20T00:18:41.299Z,98660.17
2018-09-20T00:21:13.075Z,98664.03
2018-09-20T00:23:44.925Z,98674.55
2018-09-20T00:26:16.576Z,98681.41
2018-09-20T00:28:48.430Z,98682.94
2018-09-20T00:31:20.043Z,98681.73
2018-09-20T00:33:51.965Z,98679.75
2018-09-20T00:36:23.625Z,98687.77
2018-09-20T00:38:55.601Z,98689.29
2018-09-20T00:41:27.357Z,98687.34
2018-09-20T00:43:59.174Z,98686.83
2018-09-20T00:46:30.748Z,98687.84
2018-09-20T00:49:02.420Z,98688.34
2018-09-20T00:51:34.090Z,98691.85
2018-09-20T00:54:05.972Z,98690.01
2018-09-20T00:56:37.669Z,98688.67
2018-09-20T00:59:09.436Z,98685.53
2018-09-20T01:01:41.363Z,98693.03
2018-09-20T01:04:13.212Z,98696.53
2018-09-20T01:06:44.923Z,98692.81
2018-09-20T01:09:17.840Z,98696.53
2018-09-20T01:11:49.652Z,98691.36
2018-09-20T01:14:21.421Z,98693.53
2018-09-20T01:16:53.087Z,98692.88
2018-09-20T01:19:24.754Z,98691.72
2018-09-20T01:21:56.841Z,98694.90
2018-09-20T01:24:28.701Z,98698.29
2018-09-20T01:27:00.423Z,98700.42
2018-09-20T01:29:32.069Z,98703.78
2018-09-20T01:32:03.693Z,98700.28
2018-09-20T01:34:35.479Z,98705.30
2018-09-20T01:37:07.263Z,98708.47
2018-09-20T01:39:39.517Z,98717.50
2018-09-20T01:42:10.933Z,98719.34
2018-09-20T01:44:42.758Z,98723.02
2018-09-20T01:47:14.700Z,98732.08
2018-09-20T01:49:46.407Z,98731.75
2018-09-20T01:52:18.116Z,98733.11
2018-09-20T01:54:49.920Z,98735.28
2018-09-20T01:57:21.806Z,98747.81
2018-09-20T01:59:53.554Z,98747.29
2018-09-20T02:02:25.211Z,98754.95
2018-09-20T02:04:57.093Z,98753.38
2018-09-20T02:07:28.892Z,98755.27
2018-09-20T02:10:00.579Z,98757.34
2018-09-20T02:12:32.180Z,98764.02
2018-09-20T02:15:04.011Z,98758.06
2018-09-20T02:17:35.645Z,98761.73
2018-09-20T02:20:07.365Z,98767.89
2018-09-20T02:22:38.949Z,98770.97
2018-09-20T02:25:10.859Z,98777.12
2018-09-20T02:27:42.539Z,98781.76
2018-09-20T02:30:14.293Z,98783.25
2018-09-20T02:32:46.092Z,98791.42
2018-09-20T02:35:18.259Z,98798.05
2018-09-20T02:37:49.987Z,98806.39
2018-09-20T02:40:21.842Z,98804.39
2018-09-20T02:42:53.353Z,98808.77
2018-09-20T02:45:25.232Z,98821.91
2018-09-20T02:47:56.880Z,98821.86
2018-09-20T02:50:28.658Z,98831.03
2018-09-20T02:53:00.155Z,98827.02
2018-09-20T02:55:31.742Z,98823.85
2018-09-20T02:58:03.873Z,98824.02
2018-09-20T03:00:35.441Z,98827.91
2018-09-20T03:03:07.138Z,98832.59
2018-09-20T03:05:39.138Z,98829.97
2018-09-20T03:08:10.886Z,98831.80
2018-09-20T03:10:42.619Z,98835.14
2018-09-20T03:13:14.419Z,98842.52
2018-09-20T03:15:46.256Z,98836.14
2018-09-20T03:18:17.909Z,98837.98
2018-09-20T03:20:49.692Z,98830.63
2018-09-20T03:23:21.510Z,98825.47
2018-09-20T03:25:53.026Z,98828.30
2018-09-20T03:28:24.723Z,98831.45
2018-09-20T03:30:56.833Z,98832.09
2018-09-20T03:33:29.124Z,98832.58
2018-09-20T03:36:00.943Z,98829.70
2018-09-20T03:38:32.367Z,98831.69
2018-09-20T03:41:04.180Z,98829.36
2018-09-20T03:43:35.723Z,98837.38
2018-09-20T03:46:07.502Z,98841.87
2018-09-20T03:48:39.205Z,98840.03
2018-09-20T03:51:11.561Z,98847.33
2018-09-20T03:53:43.066Z,98848.42
2018-09-20T03:56:14.999Z,98852.84
2018-09-20T03:58:47.150Z,98846.84
2018-09-20T04:01:19.312Z,98849.98
2018-09-20T04:03:51.397Z,98852.30
2018-09-20T04:06:23.038Z,98854.47
2018-09-20T04:08:54.974Z,98850.64
2018-09-20T04:11:27.149Z,98855.60
2018-09-20T04:13:58.528Z,98855.94
2018-09-20T04:16:30.224Z,98852.76
2018-09-20T04:19:01.681Z,98850.92
2018-09-20T04:21:34.672Z,98845.45
2018-09-20T04:24:07.494Z,98849.25
2018-09-20T04:26:39.466Z,98846.92
2018-09-20T04:29:11.177Z,98850.25
2018-09-20T04:31:43.166Z,98848.53
2018-09-20T04:34:14.970Z,98849.20
2018-09-20T04:36:46.829Z,98851.53
2018-09-20T04:39:18.449Z,98853.88
2018-09-20T04:41:50.577Z,98854.91
2018-09-20T04:44:22.641Z,98855.92
2018-09-20T04:46:54.543Z,98856.25
2018-09-20T04:49:26.366Z,98856.88
2018-09-20T04:51:58.153Z,98854.25
2018-09-20T04:54:29.890Z,98857.27
2018-09-20T04:57:01.816Z,98854.59
2018-09-20T04:59:34.198Z,98850.80
2018-09-20T05:02:06.303Z,98849.25
2018-09-20T05:04:38.136Z,98850.92
2018-09-20T05:07:09.934Z,98847.25
2018-09-20T05:09:41.563Z,98847.25
2018-09-20T05:12:13.431Z,98847.08
2018-09-20T05:14:45.119Z,98847.58
2018-09-20T05:17:17.120Z,98851.25
2018-09-20T05:19:49.013Z,98848.91
2018-09-20T05:22:21.192Z,98844.41
2018-09-20T05:24:53.288Z,98848.25
2018-09-20T05:27:24.911Z,98841.07
2018-09-20T05:29:56.648Z,98844.91
2018-09-20T05:32:28.529Z,98838.56
2018-09-20T05:35:00.405Z,98838.56
2018-09-20T05:37:32.752Z,98834.88
2018-09-20T05:40:04.830Z,98831.70
2018-09-20T05:42:36.849Z,98829.84
2018-09-20T05:45:08.640Z,98823.16
2018-09-20T05:47:40.811Z,98824.20
2018-09-20T05:50:12.600Z,98827.33
2018-09-20T05:52:45.398Z,98824.81
2018-09-20T05:55:17.640Z,98818.53
2018-09-20T05:57:49.393Z,98822.86
2018-09-20T06:00:21.662Z,98817.31
2018-09-20T06:02:53.698Z,98817.14
2018-09-20T06:05:25.466Z,98812.97
2018-09-20T06:07:57.204Z,98819.80
2018-09-20T06:10:29.112Z,98808.08
2018-09-20T06:13:01.129Z,98806.73
2018-09-20T06:15:33.310Z,98800.21
2018-09-20T06:18:05.113Z,98808.05
2018-09-20T06:20:37.087Z,98800.04
2018-09-20T06:23:08.633Z,98796.70
2018-09-20T06:25:40.311Z,98794.37
2018-09-20T06:28:12.085Z,98792.02
2018-09-20T06:30:43.797Z,98787.01
2018-09-20T06:33:15.550Z,98789.17
2018-09-20T06:35:47.333Z,98777.98
2018-09-20T06:38:19.065Z,98782.45
2018-09-20T06:40:50.708Z,98784.28
2018-09-20T06:43:22.708Z,98782.27
2018-09-20T06:45:54.684Z,98779.55
2018-09-20T06:48:26.575Z,98782.87
2018-09-20T06:50:58.047Z,98772.01
2018-09-20T06:53:29.973Z,98773.16
2018-09-20T06:56:02.000Z,98770.49
2018-09-20T06:58:33.947Z,98765.77
2018-09-20T07:01:05.749Z,98764.26
2018-09-20T07:03:37.800Z,98756.57
2018-09-20T07:06:09.637Z,98754.40
2018-09-20T07:08:41.731Z,98753.39
2018-09-20T07:11:14.687Z,98746.71
2018-09-20T07:13:46.288Z,98747.55
2018-09-20T07:16:18.172Z,98742.38
2018-09-20T07:18:50.240Z,98737.33
2018-09-20T07:21:22.116Z,98728.81
2018-09-20T07:23:54.110Z,98723.28
2018-09-20T07:26:26.155Z,98726.97
2018-09-20T07:28:58.058Z,98719.61
2018-09-20T07:31:29.816Z,98712.56
2018-09-20T07:34:01.545Z,98699.20
2018-09-20T07:36:33.399Z,98695.48
2018-09-20T07:39:05.851Z,98699.82
2018-09-20T07:41:38.297Z,98692.64
2018-09-20T07:44:10.617Z,98688.95
2018-09-20T07:46:42.418Z,98689.45
2018-09-20T07:49:14.538Z,98681.77
2018-09-20T07:51:46.263Z,98678.41
2018-09-20T07:54:17.985Z,98670.39
2018-09-20T07:56:49.523Z,98669.23
2018-09-20T07:59:21.363Z,98667.39
2018-09-20T08:01:53.044Z,98670.71
2018-09-20T08:04:24.959Z,98662.98
2018-09-20T08:06:56.981Z,98661.80
2018-09-20T08:09:28.752Z,98656.62
2018-09-20T08:12:00.720Z,98649.27
2018-09-20T08:14:32.362Z,98644.60
2018-09-20T08:17:03.963Z,98647.42
2018-09-20T08:19:35.876Z,98635.72
2018-09-20T08:22:07.450Z,98632.53
2018-09-20T08:24:39.393Z,98624.84
2018-09-20T08:27:11.363Z,98621.45
2018-09-20T08:29:43.310Z,98619.61
2018-09-20T08:32:15.324Z,98617.77
2018-09-20T08:34:47.283Z,98618.09
2018-09-20T08:37:19.463Z,98610.06
2018-09-20T08:39:51.557Z,98615.41
2018-09-20T08:42:23.761Z,98609.05
2018-09-20T08:44:55.784Z,98605.05
2018-09-20T08:47:28.667Z,98605.87
2018-09-20T08:50:00.880Z,98605.69
2018-09-20T08:52:32.880Z,98604.64
2018-09-20T08:55:05.652Z,98604.97
2018-09-20T08:57:42.087Z,98612.30
2018-09-20T09:00:14.110Z,98600.27
2018-09-20T09:02:46.119Z,98593.91
2018-09-20T09:05:19.288Z,98589.58
2018-09-20T09:07:51.251Z,98588.74
2018-09-20T09:10:24.859Z,98587.55
2018-09-20T09:12:56.424Z,98589.20
2018-09-20T09:15:28.255Z,98587.87
2018-09-20T09:18:00.336Z,98581.48
2018-09-20T09:20:32.206Z,98586.83
2018-09-20T09:23:04.911Z,98583.86
2018-09-20T09:25:36.970Z,98588.38
2018-09-20T09:28:09.069Z,98582.30
2018-09-20T09:30:41.393Z,98583.86
2018-09-20T09:33:13.301Z,98577.79
2018-09-20T09:35:45.404Z,98576.13
2018-09-20T09:38:17.502Z,98576.77
2018-09-20T09:40:49.385Z,98578.94
2018-09-20T09:43:21.400Z,98579.77
2018-09-20T09:45:53.229Z,98582.45
2018-09-20T09:48:24.970Z,98583.92
2018-09-20T09:50:56.932Z,98579.69
2018-09-20T09:53:28.868Z,98581.17
2018-09-20T09:56:00.666Z,98580.34
2018-09-20T09:58:32.500Z,98572.64
2018-09-20T10:01:04.260Z,98574.80
2018-09-20T10:03:35.954Z,98569.27
2018-09-20T10:06:08.181Z,98566.59
2018-09-20T10:08:40.076Z,98560.87
2018-09-20T10:11:12.164Z,98556.36
2018-09-20T10:13:43.687Z,98552.21
2018-09-20T10:16:15.690Z,98551.23
2018-09-20T10:18:47.539Z,98546.49
2018-09-20T10:21:19.415Z,98550.50
2018-09-20T10:23:51.043Z,98555.34
2018-09-20T10:26:23.070Z,98559.86
2018-09-20T10:28:54.789Z,98552.48
2018-09-20T10:31:26.459Z,98552.48
2018-09-20T10:33:58.433Z,98546.13
2018-09-20T10:36:30.539Z,98545.29
2018-09-20T10:39:02.194Z,98544.46
2018-09-20T10:41:34.148Z,98541.78
2018-09-20T10:44:06.166Z,98541.78
2018-09-20T10:46:38.168Z,98534.91
2018-09-20T10:49:09.894Z,98535.74
2018-09-20T10:51:42.077Z,98538.73
2018-09-20T10:54:14.064Z,98528.73
2018-09-20T10:56:45.861Z,98537.08
2018-09-20T10:59:17.663Z,98547.27
2018-09-20T11:01:49.800Z,98541.09
2018-09-20T11:04:22.469Z,98543.77
2018-09-20T11:06:54.341Z,98536.06
2018-09-20T11:09:26.441Z,98533.17
2018-09-20T11:11:58.590Z,98536.06
2018-09-20T11:14:30.112Z,98538.52
2018-09-20T11:17:02.004Z,98539.86
2018-09-20T11:19:34.038Z,98538.34
2018-09-20T11:22:05.806Z,98538.14
2018-09-20T11:24:38.529Z,98532.80
2018-09-20T11:27:10.509Z,98530.95
2018-09-20T11:29:42.081Z,98525.60
2018-09-20T11:32:13.871Z,98528.92
2018-09-20T11:34:45.335Z,98526.25
2018-09-20T11:37:17.635Z,98526.25
2018-09-20T11:39:49.645Z,98526.53
2018-09-20T11:42:21.400Z,98527.88
2018-09-20T11:44:53.262Z,98531.19
2018-09-20T11:47:25.099Z,98522.02
2018-09-20T11:49:56.726Z,98523.16
2018-09-20T11:52:28.895Z,98520.17
2018-09-20T11:55:01.005Z,98522.52
2018-09-20T11:57:32.971Z,98520.67
2018-09-20T12:00:04.703Z,98520.48
2018-09-20T12:02:36.660Z,98528.52
2018-09-20T12:05:09.102Z,98520.48
2018-09-20T12:07:40.918Z,98526.48
2018-09-20T12:10:12.887Z,98523.80
2018-09-20T12:12:44.582Z,98525.46
2018-09-20T12:15:16.387Z,98522.47
2018-09-20T12:17:48.432Z,98518.45
2018-09-20T12:20:19.891Z,98517.44
2018-09-20T12:22:51.731Z,98511.26
2018-09-20T12:25:23.221Z,98517.44
2018-09-20T12:27:55.245Z,98519.66
2018-09-20T12:30:27.179Z,98522.47
2018-09-20T12:32:59.123Z,98521.13
2018-09-20T12:35:30.947Z,98529.16
2018-09-20T12:38:02.886Z,98522.79
2018-09-20T12:40:34.647Z,98521.13
2018-09-20T12:43:06.702Z,98520.30
2018-09-20T12:45:38.988Z,98523.48
2018-09-20T12:48:11.046Z,98532.84
2018-09-20T12:50:42.809Z,98532.84
2018-09-20T12:53:14.904Z,98537.18
2018-09-20T12:55:46.541Z,98538.70
2018-09-20T12:58:18.922Z,98540.88
2018-09-20T13:00:50.887Z,98539.86
2018-09-20T13:03:22.711Z,98547.75
2018-09-20T13:05:54.791Z,98543.23
2018-09-20T13:08:26.495Z,98549.91
2018-09-20T13:10:58.363Z,98549.41
2018-09-20T13:13:30.380Z,98550.55
2018-09-20T13:16:02.058Z,98554.89
2018-09-20T13:18:33.879Z,98559.92
2018-09-20T13:21:05.717Z,98569.79
2018-09-20T13:23:37.901Z,98569.28
2018-09-20T13:26:10.055Z,98574.63
2018-09-20T13:28:41.757Z,98582.66
2018-09-20T13:31:13.367Z,98583.67
2018-09-20T13:33:45.184Z,98582.02
2018-09-20T13:36:58.009Z,98590.36
2018-09-20T13:39:29.845Z,98598.52
2018-09-20T13:42:02.592Z,98599.22
2018-09-20T13:44:34.801Z,98602.41
2018-09-20T13:47:07.032Z,98603.41
2018-09-20T13:49:39.085Z,98606.09
2018-09-20T13:52:10.591Z,98612.78
2018-09-20T13:54:42.466Z,98617.44
2018-09-20T13:57:14.063Z,98619.47
2018-09-20T13:59:45.930Z,98624.81
2018-09-20T14:02:17.745Z,98626.66
2018-09-20T14:04:49.756Z,98630.17
2018-09-20T14:07:21.393Z,98633.48
2018-09-20T14:09:53.059Z,98634.69
2018-09-20T14:12:24.821Z,98642.71
2018-09-20T14:14:56.896Z,98638.19
2018-09-20T14:17:28.368Z,98643.55
2018-09-20T14:20:00.107Z,98641.88
2018-09-20T14:22:31.671Z,98647.23
2018-09-20T14:25:03.073Z,98656.09
2018-09-20T14:27:34.388Z,98654.75
2018-09-20T14:30:05.762Z,98665.95
2018-09-20T14:32:37.507Z,98668.63
2018-09-20T14:35:09.233Z,98675.64
2018-09-20T14:37:40.931Z,98678.32
2018-09-20T14:40:12.793Z,98684.17
2018-09-20T14:42:44.701Z,98689.02
2018-09-20T14:45:16.846Z,98693.54
2018-09-20T14:47:49.383Z,98701.06
2018-09-20T14:50:22.004Z,98698.38
2018-09-20T14:52:53.691Z,98697.05
2018-09-20T14:55:25.447Z,98706.91
2018-09-20T14:57:56.996Z,98710.09
2018-09-20T15:00:29.063Z,98714.94
2018-09-20T15:03:00.954Z,98715.13
2018-09-20T15:05:33.188Z,98723.47
2018-09-20T15:08:05.286Z,98723.98
2018-09-20T15:10:37.326Z,98727.56
2018-09-20T15:13:08.863Z,98738.26
2018-09-20T15:15:41.150Z,98737.75
2018-09-20T15:18:13.015Z,98746.09
2018-09-20T15:20:44.914Z,98745.78
2018-09-20T15:23:16.947Z,98756.48
2018-09-20T15:25:48.896Z,98756.98
2018-09-20T15:28:20.878Z,98753.80
2018-09-20T15:30:54.181Z,98758.83
2018-09-20T15:33:26.296Z,98767.36
2018-09-20T15:35:58.161Z,98774.55
2018-09-20T15:38:30.160Z,98782.75
2018-09-20T15:41:02.330Z,98785.11
2018-09-20T15:43:33.936Z,98793.45
2018-09-20T15:46:05.835Z,98798.30
2018-09-20T15:48:37.631Z,98805.49
2018-09-20T15:51:09.435Z,98804.48
2018-09-20T15:53:41.367Z,98812.83
2018-09-20T15:56:13.322Z,98806.14
2018-09-20T15:58:44.868Z,98811.49
2018-09-20T16:01:16.801Z,98814.67
2018-09-20T16:03:48.795Z,98814.17
2018-09-20T16:06:21.144Z,98823.53
2018-09-20T16:08:53.275Z,98830.55
2018-09-20T16:11:25.071Z,98827.87
2018-09-20T16:13:57.272Z,98834.55
2018-09-20T16:16:29.459Z,98839.91
2018-09-20T16:19:01.421Z,98838.56
2018-09-20T16:21:33.415Z,98838.56
2018-09-20T16:24:05.287Z,98833.22
2018-09-20T16:26:37.229Z,98840.73
2018-09-20T16:29:30.116Z,98841.25
2018-09-20T16:32:28.900Z,98850.28
2018-09-20T16:35:15.525Z,98847.09
2018-09-20T16:38:03.687Z,98848.44
2018-09-20T16:40:38.247Z,98842.26
2018-09-20T16:43:10.083Z,98845.44
2018-09-20T16:45:41.702Z,98843.59
2018-09-20T16:48:13.719Z,98839.58
2018-09-20T16:50:45.569Z,98843.27
2018-09-20T16:53:17.469Z,98841.93
2018-09-20T16:55:49.553Z,98843.27
2018-09-20T16:58:21.525Z,98840.59
2018-09-20T17:00:53.422Z,98839.77
2018-09-20T17:03:25.149Z,98839.58
2018-09-20T17:05:57.169Z,98840.09
2018-09-20T17:08:28.890Z,98838.24
2018-09-20T17:11:00.636Z,98830.55
2018-09-20T17:13:32.459Z,98828.88
2018-09-20T17:16:06.190Z,98834.41
2018-09-20T17:18:38.104Z,98836.08
2018-09-20T17:21:10.522Z,98838.75
2018-09-20T17:23:42.498Z,98835.56
2018-09-20T17:26:14.439Z,98840.23
2018-09-20T17:28:46.522Z,98843.92
2018-09-20T17:31:18.133Z,98849.59
2018-09-20T17:33:50.461Z,98847.25
2018-09-20T17:36:22.839Z,98841.57
2018-09-20T17:38:55.954Z,98838.89
2018-09-20T17:41:30.948Z,98837.56
2018-09-20T17:44:07.394Z,98837.56
2018-09-20T17:46:39.199Z,98843.92
2018-09-20T17:49:11.160Z,98843.09
2018-09-20T17:51:43.444Z,98842.26
2018-09-20T17:54:16.296Z,98840.92
2018-09-20T17:56:48.959Z,98834.23
2018-09-20T17:59:20.525Z,98835.89
2018-09-20T18:01:52.236Z,98837.41
2018-09-20T18:04:23.895Z,98829.89
2018-09-20T18:06:55.994Z,98830.91
2018-09-20T18:09:27.511Z,98823.20
2018-09-20T18:11:59.203Z,98813.84
2018-09-20T18:14:31.332Z,98812.69
2018-09-20T18:17:02.980Z,98810.84
2018-09-20T18:19:35.936Z,98806.33
2018-09-20T18:22:07.888Z,98807.34
2018-09-20T18:24:39.748Z,98809.57
2018-09-20T18:27:11.639Z,98807.91
2018-09-20T18:29:43.459Z,98801.88
2018-09-20T18:32:15.318Z,98811.86
2018-09-20T18:34:47.829Z,98810.52
2018-09-20T18:37:19.534Z,98809.83
2018-09-20T18:39:51.287Z,98804.16
2018-09-20T18:42:23.007Z,98799.64
2018-09-20T18:44:54.885Z,98810.02
2018-09-20T18:47:26.770Z,98812.69
2018-09-20T18:49:58.287Z,98805.82
2018-09-20T18:52:29.850Z,98812.18
2018-09-20T18:55:01.697Z,98814.53
2018-09-20T18:57:33.598Z,98814.23
2018-09-20T19:00:05.282Z,98813.41
2018-09-20T19:02:36.963Z,98806.45
2018-09-20T19:05:09.142Z,98809.67
2018-09-20T19:07:40.955Z,98808.98
2018-09-20T19:10:12.845Z,98804.97
2018-09-20T19:12:44.907Z,98809.67
2018-09-20T19:15:16.976Z,98800.84
2018-09-20T19:17:48.757Z,98796.13
2018-09-20T19:20:20.653Z,98788.24
2018-09-20T19:22:52.336Z,98791.56
2018-09-20T19:25:24.376Z,98786.88
2018-09-20T19:27:55.773Z,98792.55
2018-09-20T19:30:27.747Z,98786.88
2018-09-20T19:32:59.763Z,98782.86
2018-09-20T19:35:31.620Z,98781.84
2018-09-20T19:38:03.935Z,98788.72
2018-09-20T19:40:35.820Z,98785.53
2018-09-20T19:43:07.843Z,98784.52
2018-09-20T19:45:39.604Z,98784.20
2018-09-20T19:48:11.352Z,98776.86
2018-09-20T19:50:43.391Z,98780.04
2018-09-20T19:53:15.023Z,98786.58
2018-09-20T19:55:47.119Z,98782.39
2018-09-20T19:58:18.720Z,98774.04
2018-09-20T20:00:51.025Z,98771.88
2018-09-20T20:03:22.621Z,98768.19
2018-09-20T20:05:54.570Z,98764.17
2018-09-20T20:08:26.445Z,98760.81
2018-09-20T20:10:58.553Z,98761.83
2018-09-20T20:13:30.581Z,98761.83
2018-09-20T20:16:02.609Z,98765.00
2018-09-20T20:18:34.197Z,98758.83
2018-09-20T20:21:05.955Z,98761.83
2018-09-20T20:23:37.969Z,98756.15
2018-09-20T20:26:09.866Z,98757.16
2018-09-20T20:28:41.925Z,98752.31
2018-09-20T20:31:13.586Z,98750.47
2018-09-20T20:33:45.376Z,98747.80
2018-09-20T20:36:17.325Z,98754.34
2018-09-20T20:38:49.338Z,98748.48
2018-09-20T20:41:21.203Z,98744.98
2018-09-20T20:43:53.344Z,98742.02
2018-09-20T20:46:25.272Z,98742.81
2018-09-20T20:48:56.950Z,98750.84
2018-09-20T20:51:29.032Z,98752.71
2018-09-20T20:54:00.532Z,98747.55
2018-09-20T20:56:32.544Z,98752.38
2018-09-20T20:59:04.014Z,98742.52
2018-09-20T21:01:35.978Z,98746.53
2018-09-20T21:04:07.838Z,98741.19
2018-09-20T21:06:40.042Z,98740.67
2018-09-20T21:09:12.649Z,98736.66
2018-09-20T21:11:44.353Z,98743.35
2018-09-20T21:14:16.152Z,98739.34
2018-09-20T21:16:48.162Z,98741.80
2018-09-20T21:19:19.816Z,98728.11
2018-09-20T21:21:51.474Z,98726.77
2018-09-20T21:24:23.376Z,98727.31
2018-09-20T21:26:54.979Z,98727.42
2018-09-20T21:29:26.617Z,98731.31
2018-09-20T21:31:58.409Z,98727.31
2018-09-20T21:34:30.246Z,98727.81
2018-09-20T21:37:01.990Z,98727.81
2018-09-20T21:39:34.926Z,98718.13
2018-09-20T21:42:06.698Z,98721.81
2018-09-20T21:44:38.467Z,98719.14
2018-09-20T21:47:10.565Z,98720.66
2018-09-20T21:49:42.268Z,98726.19
2018-09-20T21:52:14.078Z,98727.52
2018-09-20T21:54:45.800Z,98730.20
2018-09-20T21:57:17.826Z,98736.77
2018-09-20T21:59:49.964Z,98734.92
2018-09-20T22:02:26.237Z,98737.27
2018-09-20T22:04:58.073Z,98726.91
2018-09-20T22:07:29.903Z,98736.77
2018-09-20T22:10:01.437Z,98739.95
2018-09-20T22:12:33.533Z,98734.60
2018-09-20T22:15:05.289Z,98733.09
2018-09-20T22:17:37.173Z,98734.60
2018-09-20T22:20:09.250Z,98733.45
2018-09-20T22:22:41.350Z,98737.27
2018-09-20T22:25:13.516Z,98730.27
2018-09-20T22:27:45.430Z,98747.31
2018-09-20T22:30:17.332Z,98737.96
2018-09-20T22:32:49.646Z,98738.97
2018-09-20T22:35:21.458Z,98731.64
2018-09-20T22:37:53.090Z,98736.80
2018-09-20T22:40:25.041Z,98741.31
2018-09-20T22:42:56.793Z,98734.31
2018-09-20T22:45:28.756Z,98732.17
2018-09-20T22:48:00.338Z,98732.03
2018-09-20T22:50:32.362Z,98736.72
2018-09-20T22:53:04.504Z,98742.72
2018-09-20T22:55:36.001Z,98739.72
2018-09-20T22:58:07.987Z,98740.73
2018-09-20T23:00:39.624Z,98747.42
2018-09-20T23:03:11.349Z,98753.45
2018-09-20T23:05:43.319Z,98753.77
2018-09-20T23:08:15.346Z,98751.42
2018-09-20T23:10:47.259Z,98749.58
2018-09-20T23:13:18.931Z,98754.78
2018-09-20T23:15:50.756Z,98751.42
2018-09-20T23:18:22.921Z,98755.11
2018-09-20T23:20:55.423Z,98763.02
2018-09-20T23:23:27.127Z,98758.80
2018-09-20T23:25:59.108Z,98761.17
2018-09-20T23:28:30.896Z,98767.20
2018-09-20T23:31:02.461Z,98763.52
2018-09-20T23:33:34.229Z,98763.05
2018-09-20T23:36:05.650Z,98772.41
2018-09-20T23:38:37.586Z,98770.56
2018-09-20T23:41:09.701Z,98776.59
2018-09-20T23:43:41.450Z,98773.30
2018-09-20T23:46:13.145Z,98784.31
2018-09-20T23:48:44.988Z,98780.92
2018-09-20T23:51:16.843Z,98776.30
2018-09-20T23:53:48.875Z,98780.30
2018-09-20T23:56:20.432Z,98782.32
2018-09-20T23:58:52.181Z,98782.65
